sensor_id;sensor_type;location;lat;lon;timestamp;pressure;altitude;pressure_sealevel;temperature;humidity
30875;BME280;17581;43.222;27.924;2023-03-04T00:01:44;100872.75;;;9.88;79.15
30875;BME280;17581;43.222;27.924;2023-03-04T00:04:10;100868.72;;;9.93;79.31
30875;BME280;17581;43.222;27.924;2023-03-04T00:06:35;100865.41;;;9.90;79.00
30875;BME280;17581;43.222;27.924;2023-03-04T00:09:01;100867.00;;;9.92;79.08
30875;BME280;17581;43.222;27.924;2023-03-04T00:11:29;100871.19;;;9.96;79.03
30875;BME280;17581;43.222;27.924;2023-03-04T00:13:55;100878.63;;;9.93;78.69
30875;BME280;17581;43.222;27.924;2023-03-04T00:16:21;100864.31;;;9.92;78.99
30875;BME280;17581;43.222;27.924;2023-03-04T00:18:46;100874.59;;;9.98;78.98
30875;BME280;17581;43.222;27.924;2023-03-04T00:21:12;100879.13;;;9.98;78.80
30875;BME280;17581;43.222;27.924;2023-03-04T00:23:37;100878.88;;;10.01;78.68
30875;BME280;17581;43.222;27.924;2023-03-04T00:26:05;100864.94;;;9.96;78.48
30875;BME280;17581;43.222;27.924;2023-03-04T00:28:32;100875.47;;;9.99;78.29
30875;BME280;17581;43.222;27.924;2023-03-04T00:30:57;100873.75;;;9.98;78.18
30875;BME280;17581;43.222;27.924;2023-03-04T00:33:23;100887.22;;;9.85;78.35
30875;BME280;17581;43.222;27.924;2023-03-04T00:35:48;100877.28;;;9.74;78.68
30875;BME280;17581;43.222;27.924;2023-03-04T00:38:13;100893.88;;;9.68;78.74
30875;BME280;17581;43.222;27.924;2023-03-04T00:40:39;100885.44;;;9.73;79.41
30875;BME280;17581;43.222;27.924;2023-03-04T00:43:04;100885.44;;;9.73;79.45
30875;BME280;17581;43.222;27.924;2023-03-04T00:45:30;100864.78;;;9.62;79.40
30875;BME280;17581;43.222;27.924;2023-03-04T00:47:55;100881.84;;;9.61;79.43
30875;BME280;17581;43.222;27.924;2023-03-04T00:50:21;100881.34;;;9.56;79.74
30875;BME280;17581;43.222;27.924;2023-03-04T00:52:46;100879.63;;;9.55;79.89
30875;BME280;17581;43.222;27.924;2023-03-04T00:55:11;100869.16;;;9.63;80.52
30875;BME280;17581;43.222;27.924;2023-03-04T00:57:37;100870.56;;;9.69;80.57
30875;BME280;17581;43.222;27.924;2023-03-04T01:00:03;100867.00;;;9.68;80.65
30875;BME280;17581;43.222;27.924;2023-03-04T01:02:29;100868.47;;;9.72;80.33
30875;BME280;17581;43.222;27.924;2023-03-04T01:04:54;100869.09;;;9.76;80.51
30875;BME280;17581;43.222;27.924;2023-03-04T01:07:20;100856.03;;;9.71;80.64
30875;BME280;17581;43.222;27.924;2023-03-04T01:09:45;100867.97;;;9.67;80.23
30875;BME280;17581;43.222;27.924;2023-03-04T01:12:10;100862.28;;;9.72;80.33
30875;BME280;17581;43.222;27.924;2023-03-04T01:14:36;100859.69;;;9.70;80.19
30875;BME280;17581;43.222;27.924;2023-03-04T01:17:01;100850.47;;;9.62;80.22
30875;BME280;17581;43.222;27.924;2023-03-04T01:19:27;100856.91;;;9.72;80.21
30875;BME280;17581;43.222;27.924;2023-03-04T01:21:52;100851.13;;;9.65;79.58
30875;BME280;17581;43.222;27.924;2023-03-04T01:24:17;100849.41;;;9.64;79.73
30875;BME280;17581;43.222;27.924;2023-03-04T01:26:43;100845.97;;;9.62;79.13
30875;BME280;17581;43.222;27.924;2023-03-04T01:29:09;100853.41;;;9.59;79.29
30875;BME280;17581;43.222;27.924;2023-03-04T01:31:34;100857.16;;;9.56;79.35
30875;BME280;17581;43.222;27.924;2023-03-04T01:34:00;100856.94;;;9.59;79.71
30875;BME280;17581;43.222;27.924;2023-03-04T01:36:25;100855.84;;;9.62;79.41
30875;BME280;17581;43.222;27.924;2023-03-04T01:38:51;100855.84;;;9.62;79.27
30875;BME280;17581;43.222;27.924;2023-03-04T01:41:18;100836.47;;;9.69;79.27
30875;BME280;17581;43.222;27.924;2023-03-04T01:43:46;100829.19;;;9.71;79.20
30875;BME280;17581;43.222;27.924;2023-03-04T01:46:12;100838.38;;;9.80;78.80
30875;BME280;17581;43.222;27.924;2023-03-04T01:48:40;100838.47;;;9.78;78.44
30875;BME280;17581;43.222;27.924;2023-03-04T01:51:11;100839.97;;;9.82;78.34
30875;BME280;17581;43.222;27.924;2023-03-04T01:53:37;100828.03;;;9.87;78.66
30875;BME280;17581;43.222;27.924;2023-03-04T01:56:12;100831.84;;;9.95;78.22
30875;BME280;17581;43.222;27.924;2023-03-04T01:58:39;100827.09;;;9.99;78.04
30875;BME280;17581;43.222;27.924;2023-03-04T02:01:04;100807.41;;;9.87;77.68
30875;BME280;17581;43.222;27.924;2023-03-04T02:03:30;100825.78;;;10.04;77.78
30875;BME280;17581;43.222;27.924;2023-03-04T02:05:55;100824.91;;;10.04;77.58
30875;BME280;17581;43.222;27.924;2023-03-04T02:08:22;100822.75;;;10.09;77.75
30875;BME280;17581;43.222;27.924;2023-03-04T02:10:50;100821.03;;;10.08;78.04
30875;BME280;17581;43.222;27.924;2023-03-04T02:13:15;100820.78;;;10.11;77.30
30875;BME280;17581;43.222;27.924;2023-03-04T02:15:42;100821.03;;;10.08;77.64
30875;BME280;17581;43.222;27.924;2023-03-04T02:18:15;100824.88;;;10.16;77.42
30875;BME280;17581;43.222;27.924;2023-03-04T02:23:38;100826.00;;;10.25;77.51
30875;BME280;17581;43.222;27.924;2023-03-04T02:28:36;100819.50;;;10.27;76.99
30875;BME280;17581;43.222;27.924;2023-03-04T02:31:02;100825.53;;;10.31;76.95
30875;BME280;17581;43.222;27.924;2023-03-04T02:33:27;100821.97;;;10.30;76.50
30875;BME280;17581;43.222;27.924;2023-03-04T02:35:53;100818.78;;;10.25;76.56
30875;BME280;17581;43.222;27.924;2023-03-04T02:38:18;100819.19;;;10.32;76.86
30875;BME280;17581;43.222;27.924;2023-03-04T02:40:47;100817.59;;;10.29;75.92
30875;BME280;17581;43.222;27.924;2023-03-04T02:43:15;100829.94;;;10.32;75.99
30875;BME280;17581;43.222;27.924;2023-03-04T02:45:49;100822.56;;;10.23;75.66
30875;BME280;17581;43.222;27.924;2023-03-04T02:48:17;100820.84;;;10.22;75.88
30875;BME280;17581;43.222;27.924;2023-03-04T02:50:46;100819.63;;;10.15;75.90
30875;BME280;17581;43.222;27.924;2023-03-04T02:53:13;100836.50;;;10.28;76.14
30875;BME280;17581;43.222;27.924;2023-03-04T02:55:39;100832.47;;;10.22;76.17
30875;BME280;17581;43.222;27.924;2023-03-04T02:58:06;100835.53;;;10.29;76.58
30875;BME280;17581;43.222;27.924;2023-03-04T03:00:31;100831.91;;;10.30;76.23
30875;BME280;17581;43.222;27.924;2023-03-04T03:02:57;100845.34;;;10.30;75.80
30875;BME280;17581;43.222;27.924;2023-03-04T03:05:27;100837.50;;;10.27;75.47
30875;BME280;17581;43.222;27.924;2023-03-04T03:07:54;100844.09;;;10.34;75.51
30875;BME280;17581;43.222;27.924;2023-03-04T03:10:20;100835.31;;;10.32;75.14
30875;BME280;17581;43.222;27.924;2023-03-04T03:12:45;100839.34;;;10.26;75.15
30875;BME280;17581;43.222;27.924;2023-03-04T03:15:11;100842.88;;;10.27;75.75
30875;BME280;17581;43.222;27.924;2023-03-04T03:17:37;100845.50;;;10.16;75.54
30875;BME280;17581;43.222;27.924;2023-03-04T03:20:03;100839.13;;;10.06;75.47
30875;BME280;17581;43.222;27.924;2023-03-04T03:22:28;100840.34;;;10.13;76.14
30875;BME280;17581;43.222;27.924;2023-03-04T03:24:54;100841.34;;;10.12;75.90
30875;BME280;17581;43.222;27.924;2023-03-04T03:27:20;100856.47;;;10.13;76.26
30875;BME280;17581;43.222;27.924;2023-03-04T03:29:45;100855.53;;;10.14;76.77
30875;BME280;17581;43.222;27.924;2023-03-04T03:32:10;100845.50;;;10.16;76.61
30875;BME280;17581;43.222;27.924;2023-03-04T03:34:36;100834.97;;;10.13;76.35
30875;BME280;17581;43.222;27.924;2023-03-04T03:37:01;100849.47;;;9.99;76.44
30875;BME280;17581;43.222;27.924;2023-03-04T03:39:27;100846.81;;;10.10;76.67
30875;BME280;17581;43.222;27.924;2023-03-04T03:41:52;100844.03;;;10.12;76.75
30875;BME280;17581;43.222;27.924;2023-03-04T03:44:18;100840.56;;;10.10;77.13
30875;BME280;17581;43.222;27.924;2023-03-04T03:46:43;100831.34;;;10.14;77.40
30875;BME280;17581;43.222;27.924;2023-03-04T03:49:08;100841.63;;;10.20;76.95
30875;BME280;17581;43.222;27.924;2023-03-04T03:51:35;100840.44;;;10.24;76.95
30875;BME280;17581;43.222;27.924;2023-03-04T03:54:00;100830.63;;;10.23;76.67
30875;BME280;17581;43.222;27.924;2023-03-04T03:56:26;100838.97;;;10.31;76.36
30875;BME280;17581;43.222;27.924;2023-03-04T03:58:51;100835.53;;;10.29;76.27
30875;BME280;17581;43.222;27.924;2023-03-04T04:01:17;100842.41;;;10.33;76.20
30875;BME280;17581;43.222;27.924;2023-03-04T04:03:42;100837.91;;;10.33;75.98
30875;BME280;17581;43.222;27.924;2023-03-04T04:06:08;100841.94;;;10.39;76.40
30875;BME280;17581;43.222;27.924;2023-03-04T04:08:33;100841.19;;;10.37;76.45
30875;BME280;17581;43.222;27.924;2023-03-04T04:10:58;100842.16;;;10.36;76.02
30875;BME280;17581;43.222;27.924;2023-03-04T04:13:24;100835.66;;;10.27;76.22
30875;BME280;17581;43.222;27.924;2023-03-04T04:15:52;100852.94;;;10.36;75.83
30875;BME280;17581;43.222;27.924;2023-03-04T04:18:18;100845.72;;;10.13;76.34
30875;BME280;17581;43.222;27.924;2023-03-04T04:20:43;100858.25;;;10.25;76.72
30875;BME280;17581;43.222;27.924;2023-03-04T04:23:10;100847.97;;;10.19;76.59
30875;BME280;17581;43.222;27.924;2023-03-04T04:25:35;100857.63;;;10.21;76.55
30875;BME280;17581;43.222;27.924;2023-03-04T04:28:01;100855.56;;;10.25;76.41
30875;BME280;17581;43.222;27.924;2023-03-04T04:30:26;100858.00;;;10.28;76.50
30875;BME280;17581;43.222;27.924;2023-03-04T04:32:53;100853.88;;;10.24;77.15
30875;BME280;17581;43.222;27.924;2023-03-04T04:35:18;100855.69;;;10.23;77.40
30875;BME280;17581;43.222;27.924;2023-03-04T04:37:43;100861.69;;;10.27;77.04
30875;BME280;17581;43.222;27.924;2023-03-04T04:40:09;100858.53;;;10.33;76.90
30875;BME280;17581;43.222;27.924;2023-03-04T04:42:35;100861.97;;;10.35;76.85
30875;BME280;17581;43.222;27.924;2023-03-04T04:45:00;100854.84;;;10.34;77.26
30875;BME280;17581;43.222;27.924;2023-03-04T04:47:26;100863.38;;;10.28;76.79
30875;BME280;17581;43.222;27.924;2023-03-04T04:49:51;100864.63;;;10.24;76.83
30875;BME280;17581;43.222;27.924;2023-03-04T04:52:17;100875.97;;;10.27;77.16
30875;BME280;17581;43.222;27.924;2023-03-04T04:54:42;100879.72;;;10.14;77.44
30875;BME280;17581;43.222;27.924;2023-03-04T04:57:08;100875.50;;;10.10;77.24
30875;BME280;17581;43.222;27.924;2023-03-04T04:59:33;100888.66;;;10.14;77.71
30875;BME280;17581;43.222;27.924;2023-03-04T05:01:59;100887.72;;;10.03;77.93
30875;BME280;17581;43.222;27.924;2023-03-04T05:04:24;100886.22;;;9.99;78.04
30875;BME280;17581;43.222;27.924;2023-03-04T05:06:50;100903.44;;;9.96;78.44
30875;BME280;17581;43.222;27.924;2023-03-04T05:09:15;100901.06;;;9.92;79.02
30875;BME280;17581;43.222;27.924;2023-03-04T05:11:41;100900.84;;;9.95;79.20
30875;BME280;17581;43.222;27.924;2023-03-04T05:14:06;100903.34;;;9.85;79.27
30875;BME280;17581;43.222;27.924;2023-03-04T05:16:33;100914.44;;;9.80;79.10
30875;BME280;17581;43.222;27.924;2023-03-04T05:18:58;100907.16;;;9.70;79.48
30875;BME280;17581;43.222;27.924;2023-03-04T05:21:24;100916.22;;;9.69;79.72
30875;BME280;17581;43.222;27.924;2023-03-04T05:23:49;100918.34;;;9.64;79.82
30875;BME280;17581;43.222;27.924;2023-03-04T05:26:16;100909.56;;;9.62;80.40
30875;BME280;17581;43.222;27.924;2023-03-04T05:28:42;100916.44;;;9.66;80.56
30875;BME280;17581;43.222;27.924;2023-03-04T05:31:07;100913.00;;;9.51;80.75
30875;BME280;17581;43.222;27.924;2023-03-04T05:33:33;100923.75;;;9.51;80.93
30875;BME280;17581;43.222;27.924;2023-03-04T05:35:59;100926.97;;;9.56;81.02
30875;BME280;17581;43.222;27.924;2023-03-04T05:38:24;100916.47;;;9.53;81.06
30875;BME280;17581;43.222;27.924;2023-03-04T05:41:02;100933.44;;;9.54;81.30
30875;BME280;17581;43.222;27.924;2023-03-04T05:43:27;100918.38;;;9.51;81.51
30875;BME280;17581;43.222;27.924;2023-03-04T05:45:54;100928.81;;;9.56;81.67
30875;BME280;17581;43.222;27.924;2023-03-04T05:48:20;100931.47;;;9.68;81.55
30875;BME280;17581;43.222;27.924;2023-03-04T05:50:45;100938.53;;;9.69;81.05
30875;BME280;17581;43.222;27.924;2023-03-04T05:53:11;100925.22;;;9.68;81.22
30875;BME280;17581;43.222;27.924;2023-03-04T05:55:37;100916.44;;;9.66;81.35
30875;BME280;17581;43.222;27.924;2023-03-04T05:58:02;100918.53;;;9.73;80.62
30875;BME280;17581;43.222;27.924;2023-03-04T06:00:28;100913.34;;;9.83;81.14
30875;BME280;17581;43.222;27.924;2023-03-04T06:02:53;100905.94;;;9.87;80.88
30875;BME280;17581;43.222;27.924;2023-03-04T06:05:19;100925.56;;;10.00;80.92
30875;BME280;17581;43.222;27.924;2023-03-04T06:07:45;100922.50;;;10.04;80.21
30875;BME280;17581;43.222;27.924;2023-03-04T06:10:16;100926.56;;;10.10;80.45
30875;BME280;17581;43.222;27.924;2023-03-04T06:12:42;100924.66;;;10.12;79.78
30875;BME280;17581;43.222;27.924;2023-03-04T06:15:08;100929.72;;;10.04;79.85
30875;BME280;17581;43.222;27.924;2023-03-04T06:17:38;100922.09;;;9.98;79.74
30875;BME280;17581;43.222;27.924;2023-03-04T06:20:04;100918.47;;;9.99;79.04
30875;BME280;17581;43.222;27.924;2023-03-04T06:22:31;100918.97;;;10.04;79.01
30875;BME280;17581;43.222;27.924;2023-03-04T06:24:56;100912.03;;;9.89;79.46
30875;BME280;17581;43.222;27.924;2023-03-04T06:27:22;100919.97;;;10.03;79.13
30875;BME280;17581;43.222;27.924;2023-03-04T06:29:47;100920.28;;;9.98;78.61
30875;BME280;17581;43.222;27.924;2023-03-04T06:32:13;100922.47;;;9.93;78.96
30875;BME280;17581;43.222;27.924;2023-03-04T06:34:38;100927.47;;;9.98;79.38
30875;BME280;17581;43.222;27.924;2023-03-04T06:37:04;100917.19;;;9.92;78.66
30875;BME280;17581;43.222;27.924;2023-03-04T06:39:29;100905.19;;;9.84;79.03
30875;BME280;17581;43.222;27.924;2023-03-04T06:41:54;100903.53;;;9.95;78.89
30875;BME280;17581;43.222;27.924;2023-03-04T06:44:20;100908.44;;;10.01;78.97
30875;BME280;17581;43.222;27.924;2023-03-04T06:46:45;100900.09;;;9.93;78.45
30875;BME280;17581;43.222;27.924;2023-03-04T06:49:11;100902.56;;;9.96;78.82
30875;BME280;17581;43.222;27.924;2023-03-04T06:51:36;100898.97;;;10.08;78.45
30875;BME280;17581;43.222;27.924;2023-03-04T06:54:02;100894.31;;;10.10;78.48
30875;BME280;17581;43.222;27.924;2023-03-04T06:56:27;100889.41;;;10.04;78.72
30875;BME280;17581;43.222;27.924;2023-03-04T06:58:53;100892.41;;;10.12;78.84
30875;BME280;17581;43.222;27.924;2023-03-04T07:01:24;100884.63;;;10.20;78.51
30875;BME280;17581;43.222;27.924;2023-03-04T07:03:51;100886.13;;;10.24;78.48
30875;BME280;17581;43.222;27.924;2023-03-04T07:06:19;100893.25;;;10.36;77.58
30875;BME280;17581;43.222;27.924;2023-03-04T07:08:45;100885.81;;;10.40;77.82
30875;BME280;17581;43.222;27.924;2023-03-04T07:11:11;100886.09;;;10.59;76.83
30875;BME280;17581;43.222;27.924;2023-03-04T07:13:36;100871.91;;;10.57;75.92
30875;BME280;17581;43.222;27.924;2023-03-04T07:16:06;100883.06;;;10.63;75.79
30875;BME280;17581;43.222;27.924;2023-03-04T07:18:32;100873.50;;;10.70;75.89
30875;BME280;17581;43.222;27.924;2023-03-04T07:20:57;100875.75;;;10.87;75.45
30875;BME280;17581;43.222;27.924;2023-03-04T07:23:23;100869.19;;;10.91;74.75
30875;BME280;17581;43.222;27.924;2023-03-04T07:25:48;100873.31;;;10.96;73.50
30875;BME280;17581;43.222;27.924;2023-03-04T07:28:14;100871.13;;;11.01;73.47
30875;BME280;17581;43.222;27.924;2023-03-04T07:30:40;100866.72;;;11.11;73.98
30875;BME280;17581;43.222;27.924;2023-03-04T07:33:05;100866.72;;;11.11;72.39
30875;BME280;17581;43.222;27.924;2023-03-04T07:35:31;100863.41;;;11.18;71.85
30875;BME280;17581;43.222;27.924;2023-03-04T07:37:56;100871.34;;;11.20;72.09
30875;BME280;17581;43.222;27.924;2023-03-04T07:40:22;100860.84;;;11.28;71.76
30875;BME280;17581;43.222;27.924;2023-03-04T07:42:49;100872.44;;;11.28;70.81
30875;BME280;17581;43.222;27.924;2023-03-04T07:45:14;100860.59;;;11.31;70.69
30875;BME280;17581;43.222;27.924;2023-03-04T07:47:40;100875.38;;;11.25;70.16
30875;BME280;17581;43.222;27.924;2023-03-04T07:50:06;100864.78;;;11.13;70.54
30875;BME280;17581;43.222;27.924;2023-03-04T07:52:31;100859.41;;;11.13;71.23
30875;BME280;17581;43.222;27.924;2023-03-04T07:54:57;100859.00;;;11.28;71.17
30875;BME280;17581;43.222;27.924;2023-03-04T07:57:22;100860.59;;;11.42;71.07
30875;BME280;17581;43.222;27.924;2023-03-04T07:59:47;100863.38;;;11.52;70.90
30875;BME280;17581;43.222;27.924;2023-03-04T08:02:13;100861.69;;;11.39;69.73
30875;BME280;17581;43.222;27.924;2023-03-04T08:04:39;100858.13;;;11.39;70.29
30875;BME280;17581;43.222;27.924;2023-03-04T08:07:05;100847.59;;;11.47;69.93
30875;BME280;17581;43.222;27.924;2023-03-04T08:09:30;100854.91;;;11.67;70.48
30875;BME280;17581;43.222;27.924;2023-03-04T08:11:56;100859.28;;;11.68;70.43
30875;BME280;17581;43.222;27.924;2023-03-04T08:14:21;100841.53;;;11.66;70.10
30875;BME280;17581;43.222;27.924;2023-03-04T08:16:47;100849.72;;;11.86;69.32
30875;BME280;17581;43.222;27.924;2023-03-04T08:19:12;100838.88;;;11.77;69.38
30875;BME280;17581;43.222;27.924;2023-03-04T08:21:37;100856.41;;;12.03;68.73
30875;BME280;17581;43.222;27.924;2023-03-04T08:24:03;100843.34;;;11.87;67.72
30875;BME280;17581;43.222;27.924;2023-03-04T08:26:37;100847.16;;;11.85;67.90
30875;BME280;17581;43.222;27.924;2023-03-04T08:29:06;100843.84;;;11.92;67.76
30875;BME280;17581;43.222;27.924;2023-03-04T08:31:32;100857.28;;;12.04;67.81
30875;BME280;17581;43.222;27.924;2023-03-04T08:33:58;100844.25;;;11.77;67.16
30875;BME280;17581;43.222;27.924;2023-03-04T08:36:23;100854.63;;;11.92;67.59
30875;BME280;17581;43.222;27.924;2023-03-04T08:38:49;100841.88;;;11.94;68.65
30875;BME280;17581;43.222;27.924;2023-03-04T08:41:15;100848.59;;;12.00;69.59
30875;BME280;17581;43.222;27.924;2023-03-04T08:43:41;100846.75;;;12.00;69.18
30875;BME280;17581;43.222;27.924;2023-03-04T08:46:07;100847.09;;;12.07;69.83
30875;BME280;17581;43.222;27.924;2023-03-04T08:48:33;100837.94;;;11.98;69.46
30875;BME280;17581;43.222;27.924;2023-03-04T08:50:58;100845.28;;;11.96;68.71
30875;BME280;17581;43.222;27.924;2023-03-04T08:53:24;100847.88;;;11.98;68.58
30875;BME280;17581;43.222;27.924;2023-03-04T08:55:50;100835.63;;;11.94;68.67
30875;BME280;17581;43.222;27.924;2023-03-04T08:58:17;100836.06;;;11.99;68.93
30875;BME280;17581;43.222;27.924;2023-03-04T09:00:47;100845.44;;;12.16;68.70
30875;BME280;17581;43.222;27.924;2023-03-04T09:03:13;100832.44;;;12.21;67.99
30875;BME280;17581;43.222;27.924;2023-03-04T09:05:39;100836.44;;;12.26;66.95
30875;BME280;17581;43.222;27.924;2023-03-04T09:08:05;100834.88;;;12.24;66.35
30875;BME280;17581;43.222;27.924;2023-03-04T09:10:31;100835.38;;;12.18;66.60
30875;BME280;17581;43.222;27.924;2023-03-04T09:12:57;100828.75;;;12.22;67.21
30875;BME280;17581;43.222;27.924;2023-03-04T09:15:22;100822.84;;;12.28;67.07
30875;BME280;17581;43.222;27.924;2023-03-04T09:17:47;100817.72;;;12.25;66.85
30875;BME280;17581;43.222;27.924;2023-03-04T09:20:13;100813.03;;;12.27;67.01
30875;BME280;17581;43.222;27.924;2023-03-04T09:22:40;100819.63;;;12.34;66.40
30875;BME280;17581;43.222;27.924;2023-03-04T09:25:06;100835.78;;;12.54;66.15
30875;BME280;17581;43.222;27.924;2023-03-04T09:27:31;100818.03;;;12.52;65.14
30875;BME280;17581;43.222;27.924;2023-03-04T09:29:57;100827.06;;;12.62;65.14
30875;BME280;17581;43.222;27.924;2023-03-04T09:32:22;100820.78;;;12.62;64.49
30875;BME280;17581;43.222;27.924;2023-03-04T09:34:48;100794.88;;;12.49;64.50
30875;BME280;17581;43.222;27.924;2023-03-04T09:37:13;100797.13;;;12.44;64.84
30875;BME280;17581;43.222;27.924;2023-03-04T09:39:39;100816.25;;;12.62;64.36
30875;BME280;17581;43.222;27.924;2023-03-04T09:42:06;100800.13;;;12.72;63.95
30875;BME280;17581;43.222;27.924;2023-03-04T09:44:36;100804.72;;;12.90;62.77
30875;BME280;17581;43.222;27.924;2023-03-04T09:47:15;100800.19;;;12.91;61.38
30875;BME280;17581;43.222;27.924;2023-03-04T09:49:44;100781.72;;;12.86;62.29
30875;BME280;17581;43.222;27.924;2023-03-04T09:55:05;100770.16;;;13.05;62.46
30875;BME280;17581;43.222;27.924;2023-03-04T10:00:24;100763.25;;;13.22;63.08
30875;BME280;17581;43.222;27.924;2023-03-04T10:03:05;100771.03;;;13.15;63.00
30875;BME280;17581;43.222;27.924;2023-03-04T10:05:56;100768.75;;;13.11;63.17
30875;BME280;17581;43.222;27.924;2023-03-04T10:08:58;100771.03;;;13.15;63.31
30875;BME280;17581;43.222;27.924;2023-03-04T10:11:33;100765.09;;;13.12;63.10
30875;BME280;17581;43.222;27.924;2023-03-04T10:14:19;100756.84;;;13.23;62.39
30875;BME280;17581;43.222;27.924;2023-03-04T10:17:19;100757.97;;;13.11;61.30
30875;BME280;17581;43.222;27.924;2023-03-04T10:22:32;100753.00;;;13.16;61.21
30875;BME280;17581;43.222;27.924;2023-03-04T10:25:21;100753.03;;;13.25;61.18
30875;BME280;17581;43.222;27.924;2023-03-04T10:27:59;100743.78;;;13.28;60.83
30875;BME280;17581;43.222;27.924;2023-03-04T10:30:56;100746.09;;;13.42;60.43
30875;BME280;17581;43.222;27.924;2023-03-04T10:33:32;100738.13;;;13.40;59.85
30875;BME280;17581;43.222;27.924;2023-03-04T10:38:48;100735.00;;;13.45;60.13
30875;BME280;17581;43.222;27.924;2023-03-04T10:41:22;100719.09;;;13.42;60.29
30875;BME280;17581;43.222;27.924;2023-03-04T10:44:16;100721.34;;;13.56;60.33
30875;BME280;17581;43.222;27.924;2023-03-04T10:46:45;100719.66;;;13.74;60.18
30875;BME280;17581;43.222;27.924;2023-03-04T10:49:15;100705.56;;;13.80;59.41
30875;BME280;17581;43.222;27.924;2023-03-04T10:54:59;100693.88;;;13.89;59.00
30875;BME280;17581;43.222;27.924;2023-03-04T10:57:48;100692.03;;;13.99;59.04
30875;BME280;17581;43.222;27.924;2023-03-04T11:00:23;100690.00;;;14.11;58.39
30875;BME280;17581;43.222;27.924;2023-03-04T11:02:49;100686.72;;;14.17;58.37
30875;BME280;17581;43.222;27.924;2023-03-04T11:05:23;100678.16;;;14.22;57.84
30875;BME280;17581;43.222;27.924;2023-03-04T11:07:54;100665.03;;;14.36;57.84
30875;BME280;17581;43.222;27.924;2023-03-04T11:12:54;100661.59;;;14.44;57.24
30875;BME280;17581;43.222;27.924;2023-03-04T11:15:26;100653.47;;;14.44;57.68
30875;BME280;17581;43.222;27.924;2023-03-04T11:18:06;100652.13;;;14.57;57.52
30875;BME280;17581;43.222;27.924;2023-03-04T11:20:38;100654.53;;;14.60;56.06
30875;BME280;17581;43.222;27.924;2023-03-04T11:23:32;100646.97;;;14.27;59.88
30875;BME280;17581;43.222;27.924;2023-03-04T11:26:07;100639.38;;;14.03;60.77
30875;BME280;17581;43.222;27.924;2023-03-04T11:31:52;100630.31;;;13.66;62.63
30875;BME280;17581;43.222;27.924;2023-03-04T11:34:40;100629.88;;;13.71;62.60
30875;BME280;17581;43.222;27.924;2023-03-04T11:37:31;100619.22;;;13.69;62.07
30875;BME280;17581;43.222;27.924;2023-03-04T11:40:09;100612.38;;;13.84;62.17
30875;BME280;17581;43.222;27.924;2023-03-04T11:42:51;100612.63;;;14.00;61.94
30875;BME280;17581;43.222;27.924;2023-03-04T11:48:33;100615.94;;;14.22;60.09
30875;BME280;17581;43.222;27.924;2023-03-04T11:56:48;100591.19;;;14.53;58.74
30875;BME280;17581;43.222;27.924;2023-03-04T11:59:35;100605.03;;;14.68;58.32
30875;BME280;17581;43.222;27.924;2023-03-04T12:02:21;100587.13;;;14.67;56.92
30875;BME280;17581;43.222;27.924;2023-03-04T12:10:32;100610.88;;;14.73;57.25
30875;BME280;17581;43.222;27.924;2023-03-04T12:24:01;100618.47;;;13.86;60.48
30875;BME280;17581;43.222;27.924;2023-03-04T12:27:16;100617.81;;;13.65;60.80
30875;BME280;17581;43.222;27.924;2023-03-04T12:30:05;100611.00;;;13.42;61.55
30875;BME280;17581;43.222;27.924;2023-03-04T12:54:32;100602.19;;;13.30;64.06
30875;BME280;17581;43.222;27.924;2023-03-04T12:57:05;100597.06;;;13.27;63.42
30875;BME280;17581;43.222;27.924;2023-03-04T12:59:39;100587.41;;;13.25;64.08
30875;BME280;17581;43.222;27.924;2023-03-04T13:05:06;100578.88;;;13.29;64.11
30875;BME280;17581;43.222;27.924;2023-03-04T13:10:26;100572.91;;;13.16;64.58
30875;BME280;17581;43.222;27.924;2023-03-04T13:12:55;100568.66;;;13.14;64.85
30875;BME280;17581;43.222;27.924;2023-03-04T13:17:58;100577.72;;;12.93;65.85
30875;BME280;17581;43.222;27.924;2023-03-04T13:20:40;100554.94;;;12.67;66.81
30875;BME280;17581;43.222;27.924;2023-03-04T13:25:48;100546.19;;;12.16;68.26
30875;BME280;17581;43.222;27.924;2023-03-04T13:28:35;100555.31;;;12.34;68.83
30875;BME280;17581;43.222;27.924;2023-03-04T13:36:04;100558.94;;;12.53;69.54
30875;BME280;17581;43.222;27.924;2023-03-04T13:38:35;100544.72;;;12.61;68.99
30875;BME280;17581;43.222;27.924;2023-03-04T13:47:17;100541.66;;;13.14;67.27
30875;BME280;17581;43.222;27.924;2023-03-04T13:49:44;100531.69;;;13.24;66.57
30875;BME280;17581;43.222;27.924;2023-03-04T13:52:40;100528.25;;;13.41;65.55
30875;BME280;17581;43.222;27.924;2023-03-04T13:55:37;100529.09;;;13.51;65.32
30875;BME280;17581;43.222;27.924;2023-03-04T13:58:25;100514.28;;;13.55;64.87
30875;BME280;17581;43.222;27.924;2023-03-04T14:00:54;100511.56;;;13.55;64.94
30875;BME280;17581;43.222;27.924;2023-03-04T14:03:23;100515.09;;;13.65;64.51
30875;BME280;17581;43.222;27.924;2023-03-04T14:08:34;100511.28;;;13.58;64.32
30875;BME280;17581;43.222;27.924;2023-03-04T14:10:59;100509.75;;;13.46;64.79
30875;BME280;17581;43.222;27.924;2023-03-04T14:13:25;100508.94;;;13.36;65.15
30875;BME280;17581;43.222;27.924;2023-03-04T14:15:56;100497.28;;;13.26;65.23
30875;BME280;17581;43.222;27.924;2023-03-04T14:18:23;100509.53;;;13.20;65.34
30875;BME280;17581;43.222;27.924;2023-03-04T14:20:52;100496.28;;;13.07;65.67
30875;BME280;17581;43.222;27.924;2023-03-04T14:23:26;100500.44;;;12.92;66.47
30875;BME280;17581;43.222;27.924;2023-03-04T14:28:45;100494.59;;;12.68;67.21
30875;BME280;17581;43.222;27.924;2023-03-04T14:31:16;100493.47;;;12.61;68.11